Zawiyat Shammas, Egypt
Current Conditions -  °F | °C
As of 12:00 AM on Saturday 29 Nov 2014 (Local Time) from HEMM Reporting Station
Clear Clear  
Wind Chill: 15°   Ceiling: Unl
Heat Index: 15°   Visibility: 6mi
Dew Point: 12°   Wind: 7mph
Humidity: 82%   Direction: 140°SE
Pressure: 30.27"   Gusts: NA
Location:  31.52°N, 26.4°E
Report Text: HEMM 282200Z 14006KT CAVOK 15/12 Q1025 NOSIG
Loading
Personal Weather Stations






























Interactive Weather Map New forecast layout! Learn more

10-Day Weather Forecast

Advertisements
Track Severe Weather on mobile